createdAt,value
2023-05-11T00:00:49.562Z,17.70
2023-05-11T00:01:51.106Z,18.37
2023-05-11T00:02:53.033Z,18.63
2023-05-11T00:03:56.238Z,17.57
2023-05-11T00:04:58.319Z,17.03
2023-05-11T00:06:00.256Z,16.73
2023-05-11T00:07:01.783Z,17.27
2023-05-11T00:08:03.351Z,17.50
2023-05-11T00:09:05.255Z,17.93
2023-05-11T00:10:07.579Z,17.37
2023-05-11T00:11:09.330Z,17.93
2023-05-11T00:12:11.052Z,17.23
2023-05-11T00:13:12.610Z,16.50
2023-05-11T00:14:14.155Z,17.70
2023-05-11T00:15:15.726Z,17.50
2023-05-11T00:16:17.355Z,17.23
2023-05-11T00:17:20.615Z,17.30
2023-05-11T00:18:22.255Z,17.77
2023-05-11T00:19:23.837Z,17.13
2023-05-11T00:20:25.428Z,17.37
2023-05-11T00:21:26.999Z,17.33
2023-05-11T00:22:28.720Z,18.30
2023-05-11T00:23:30.421Z,17.73
2023-05-11T00:24:31.962Z,18.23
2023-05-11T00:25:33.618Z,17.13
2023-05-11T00:26:35.129Z,17.73
2023-05-11T00:27:36.688Z,17.30
2023-05-11T00:28:38.204Z,17.50
2023-05-11T00:29:39.772Z,17.77
2023-05-11T00:30:41.470Z,18.57
2023-05-11T00:31:43.143Z,18.90
2023-05-11T00:32:45.395Z,18.33
2023-05-11T00:33:46.988Z,19.97
2023-05-11T00:34:48.520Z,18.30
2023-05-11T00:35:51.035Z,18.50
2023-05-11T00:36:52.586Z,18.60
2023-05-11T00:37:54.151Z,18.27
2023-05-11T00:38:55.687Z,17.93
2023-05-11T00:39:57.242Z,19.10
2023-05-11T00:40:58.787Z,19.27
2023-05-11T00:42:00.877Z,19.43
2023-05-11T00:43:02.445Z,18.10
2023-05-11T00:44:04.011Z,18.80
2023-05-11T00:45:06.332Z,18.20
2023-05-11T00:46:07.867Z,19.93
2023-05-11T00:47:09.531Z,19.37
2023-05-11T00:48:11.354Z,20.03
2023-05-11T00:49:17.160Z,18.30
2023-05-11T00:50:19.317Z,18.37
2023-05-11T00:51:23.828Z,18.87
2023-05-11T00:52:25.485Z,18.60
2023-05-11T00:53:27.259Z,18.83
2023-05-11T00:54:28.883Z,17.93
2023-05-11T00:55:30.629Z,18.57
2023-05-11T00:56:32.205Z,17.63
2023-05-11T00:57:36.197Z,17.40
2023-05-11T00:58:38.009Z,18.17
2023-05-11T00:59:39.613Z,17.93
2023-05-11T01:00:41.308Z,17.60
2023-05-11T01:01:43.014Z,18.00
2023-05-11T01:02:45.283Z,18.07
2023-05-11T01:03:47.726Z,17.07
2023-05-11T01:04:49.412Z,16.50
2023-05-11T01:06:32.689Z,17.03
2023-05-11T01:07:51.412Z,17.00
2023-05-11T01:09:20.565Z,16.40
2023-05-11T01:10:42.730Z,16.17
2023-05-11T01:11:52.027Z,16.60
2023-05-11T01:13:02.701Z,15.57
2023-05-11T01:14:11.540Z,16.33
2023-05-11T01:15:21.554Z,16.73
2023-05-11T01:16:27.024Z,16.97
2023-05-11T01:17:42.481Z,16.50
2023-05-11T01:18:59.008Z,16.27
2023-05-11T01:20:07.354Z,16.13
2023-05-11T01:21:09.862Z,15.97
2023-05-11T01:22:36.193Z,15.50
2023-05-11T01:23:40.641Z,16.63
2023-05-11T01:25:06.760Z,15.83
2023-05-11T01:26:35.224Z,16.13
2023-05-11T01:28:20.424Z,16.80
2023-05-11T01:29:43.197Z,15.70
2023-05-11T01:30:47.451Z,15.13
2023-05-11T01:31:50.516Z,15.97
2023-05-11T01:32:55.557Z,14.97
2023-05-11T01:34:04.879Z,14.77
2023-05-11T01:35:10.956Z,14.90
2023-05-11T01:36:14.805Z,14.73
2023-05-11T01:37:22.974Z,14.33
2023-05-11T01:38:28.905Z,14.17
2023-05-11T01:39:37.308Z,15.00
2023-05-11T01:40:41.914Z,14.20
2023-05-11T01:41:51.641Z,13.20
2023-05-11T01:43:05.023Z,12.20
2023-05-11T01:44:10.585Z,13.43
2023-05-11T01:45:13.757Z,11.93
2023-05-11T01:46:17.102Z,11.93
2023-05-11T01:47:20.330Z,10.57
2023-05-11T01:48:25.562Z,11.00
2023-05-11T01:49:27.913Z,10.17
2023-05-11T01:50:32.419Z,10.00
2023-05-11T01:51:39.971Z,9.33
2023-05-11T01:52:43.112Z,9.60
2023-05-11T01:53:46.689Z,9.17
2023-05-11T01:54:49.976Z,9.40
2023-05-11T01:55:52.624Z,10.00
2023-05-11T01:56:56.446Z,9.03
2023-05-11T01:57:59.592Z,9.57
2023-05-11T01:59:02.437Z,9.57
2023-05-11T02:00:04.923Z,8.97
2023-05-11T02:01:07.248Z,9.63
2023-05-11T02:02:10.115Z,9.03
2023-05-11T02:03:12.880Z,9.00
2023-05-11T02:04:16.005Z,9.43
2023-05-11T02:05:21.283Z,9.20
2023-05-11T02:06:24.832Z,9.70
2023-05-11T02:07:28.080Z,9.57
2023-05-11T02:08:32.274Z,9.87
2023-05-11T02:09:36.122Z,10.20
2023-05-11T02:10:40.589Z,10.80
2023-05-11T02:11:43.834Z,11.07
2023-05-11T02:12:46.806Z,11.30
2023-05-11T02:13:50.788Z,10.43
2023-05-11T02:14:53.957Z,10.87
2023-05-11T02:15:58.664Z,10.70
2023-05-11T02:17:02.419Z,9.60
2023-05-11T02:18:06.934Z,10.33
2023-05-11T02:19:08.895Z,11.13
2023-05-11T02:20:11.678Z,11.13
2023-05-11T02:21:15.410Z,10.43
2023-05-11T02:22:17.888Z,9.97
2023-05-11T02:23:20.657Z,10.80
2023-05-11T02:24:24.520Z,9.60
2023-05-11T02:25:26.806Z,9.83
2023-05-11T02:26:28.515Z,10.10
2023-05-11T02:27:30.193Z,10.20
2023-05-11T02:28:31.862Z,9.50
2023-05-11T02:29:33.490Z,9.60
2023-05-11T02:30:56.341Z,9.37
2023-05-11T02:32:12.298Z,8.90
2023-05-11T02:33:24.504Z,8.07
2023-05-11T02:34:29.196Z,8.47
2023-05-11T02:35:36.229Z,8.53
2023-05-11T02:36:39.015Z,9.60
2023-05-11T02:37:45.341Z,9.17
2023-05-11T02:38:48.290Z,9.83
2023-05-11T02:39:55.920Z,10.53
2023-05-11T02:41:01.425Z,11.97
2023-05-11T02:42:19.041Z,12.53
2023-05-11T02:43:28.849Z,12.03
2023-05-11T02:44:35.128Z,13.23
2023-05-11T02:45:37.750Z,13.13
2023-05-11T02:46:40.591Z,13.53
2023-05-11T02:47:56.671Z,13.53
2023-05-11T02:49:02.255Z,12.57
2023-05-11T02:50:05.936Z,13.60
2023-05-11T02:51:09.983Z,13.43
2023-05-11T02:52:13.300Z,13.77
2023-05-11T02:53:17.431Z,12.60
2023-05-11T02:54:19.648Z,12.87
2023-05-11T02:55:23.620Z,13.30
2023-05-11T02:56:26.087Z,14.03
2023-05-11T02:57:27.812Z,13.83
2023-05-11T02:58:30.353Z,13.27
2023-05-11T02:59:32.736Z,13.67
2023-05-11T03:00:34.964Z,12.50
2023-05-11T03:01:37.220Z,13.80
2023-05-11T03:02:39.144Z,13.83
2023-05-11T03:03:41.282Z,14.10
2023-05-11T03:04:42.897Z,13.07
2023-05-11T03:05:44.881Z,14.20
2023-05-11T03:06:46.560Z,12.90
2023-05-11T03:07:48.257Z,12.90
2023-05-11T03:08:50.013Z,13.60
2023-05-11T03:09:52.164Z,14.20
2023-05-11T03:10:54.342Z,13.20
2023-05-11T03:11:57.066Z,13.30
2023-05-11T03:12:59.108Z,13.80
2023-05-11T03:14:02.179Z,13.50
2023-05-11T03:15:04.761Z,14.30
2023-05-11T03:16:07.853Z,13.87
2023-05-11T03:17:10.082Z,13.07
2023-05-11T03:18:12.347Z,14.60
2023-05-11T03:19:15.194Z,13.50
2023-05-11T03:20:19.386Z,13.33
2023-05-11T03:21:23.278Z,13.73
2023-05-11T03:22:26.065Z,14.63
2023-05-11T03:23:29.864Z,15.07
2023-05-11T03:24:31.629Z,14.87
2023-05-11T03:25:33.801Z,15.93
2023-05-11T03:26:36.406Z,15.37
2023-05-11T03:27:39.437Z,16.67
2023-05-11T03:28:44.503Z,16.90
2023-05-11T03:29:47.610Z,18.27
2023-05-11T03:30:51.485Z,16.70
2023-05-11T03:31:54.869Z,16.90
2023-05-11T03:32:56.618Z,17.13
2023-05-11T03:33:58.419Z,18.43
2023-05-11T03:35:00.166Z,18.00
2023-05-11T03:36:04.473Z,17.50
2023-05-11T03:37:08.022Z,17.70
2023-05-11T03:38:12.446Z,17.30
2023-05-11T03:39:16.445Z,17.33
2023-05-11T03:40:19.866Z,16.50
2023-05-11T03:41:22.680Z,16.17
2023-05-11T03:42:26.588Z,15.77
2023-05-11T03:43:31.904Z,15.40
2023-05-11T03:44:34.409Z,16.23
2023-05-11T03:45:37.676Z,14.37
2023-05-11T03:46:41.927Z,15.03
2023-05-11T03:47:45.165Z,13.93
2023-05-11T03:48:48.172Z,13.57
2023-05-11T03:49:51.328Z,13.43
2023-05-11T03:50:53.536Z,13.27
2023-05-11T03:51:56.322Z,13.50
2023-05-11T03:52:59.254Z,13.67
2023-05-11T03:54:01.106Z,13.30
2023-05-11T03:55:03.670Z,13.03
2023-05-11T03:56:07.439Z,12.60
2023-05-11T03:57:10.126Z,13.00
2023-05-11T03:58:11.800Z,12.67
2023-05-11T03:59:16.784Z,12.50
2023-05-11T04:00:19.324Z,13.43
2023-05-11T04:01:22.847Z,12.67
2023-05-11T04:02:24.726Z,12.07
2023-05-11T04:03:26.708Z,12.40
2023-05-11T04:04:32.336Z,12.77
2023-05-11T04:05:33.933Z,12.97
2023-05-11T04:06:35.625Z,12.57
2023-05-11T04:07:38.868Z,12.50
2023-05-11T04:08:40.608Z,12.47
2023-05-11T04:09:42.184Z,12.33
2023-05-11T04:10:43.693Z,12.30
2023-05-11T04:11:45.378Z,12.67
2023-05-11T04:12:46.908Z,13.30
2023-05-11T04:13:48.465Z,12.07
2023-05-11T04:14:50.040Z,13.20
2023-05-11T04:15:54.249Z,13.77
2023-05-11T04:16:55.937Z,11.90
2023-05-11T04:17:57.579Z,12.57
2023-05-11T04:18:59.449Z,12.67
2023-05-11T04:20:01.307Z,12.67
2023-05-11T04:21:02.894Z,12.30
2023-05-11T04:22:04.441Z,12.33
2023-05-11T04:23:06.961Z,11.67
2023-05-11T04:24:09.286Z,12.80
2023-05-11T04:25:11.531Z,13.47
2023-05-11T04:26:13.301Z,12.50
2023-05-11T04:27:16.480Z,13.07
2023-05-11T04:28:18.596Z,12.80
2023-05-11T04:29:20.104Z,13.03
2023-05-11T04:30:22.022Z,12.77
2023-05-11T04:31:23.801Z,13.03
2023-05-11T04:32:25.430Z,12.50
2023-05-11T04:33:27.067Z,12.17
2023-05-11T04:34:28.636Z,12.87
2023-05-11T04:35:30.161Z,13.30
2023-05-11T04:36:33.014Z,12.30
2023-05-11T04:37:34.562Z,12.47
2023-05-11T04:38:36.748Z,12.70
2023-05-11T04:39:38.369Z,12.73
2023-05-11T04:40:39.996Z,12.70
2023-05-11T04:41:41.574Z,12.50
2023-05-11T04:42:43.229Z,12.87
2023-05-11T04:43:44.796Z,13.37
2023-05-11T04:44:46.504Z,13.10
2023-05-11T04:45:51.485Z,13.60
2023-05-11T04:46:56.761Z,13.23
2023-05-11T04:47:58.469Z,13.70
2023-05-11T04:49:00.121Z,13.00
2023-05-11T04:50:01.689Z,13.63
2023-05-11T04:51:06.840Z,14.90
2023-05-11T04:52:08.378Z,13.90
2023-05-11T04:53:10.310Z,14.23
2023-05-11T04:54:11.906Z,13.60
2023-05-11T04:55:13.428Z,14.93
2023-05-11T04:56:14.999Z,14.47
2023-05-11T04:57:16.562Z,13.97
2023-05-11T04:58:18.093Z,14.93
2023-05-11T04:59:19.709Z,14.37
2023-05-11T05:00:21.928Z,14.57
2023-05-11T05:01:23.725Z,13.57
2023-05-11T05:02:25.515Z,13.90
2023-05-11T05:03:27.201Z,14.40
2023-05-11T05:04:29.008Z,15.00
2023-05-11T05:05:30.809Z,15.33
2023-05-11T05:06:32.868Z,16.17
2023-05-11T05:07:34.447Z,15.50
2023-05-11T05:08:36.134Z,15.43
2023-05-11T05:09:37.644Z,16.23
2023-05-11T05:10:39.210Z,15.60
2023-05-11T05:11:40.860Z,16.57
2023-05-11T05:12:42.406Z,15.90
2023-05-11T05:13:44.175Z,16.47
2023-05-11T05:14:45.737Z,16.13
2023-05-11T05:15:47.362Z,16.17
2023-05-11T05:16:49.246Z,16.17
2023-05-11T05:17:50.842Z,16.03
2023-05-11T05:18:52.423Z,16.50
2023-05-11T05:19:53.953Z,15.00
2023-05-11T05:20:55.579Z,15.23
2023-05-11T05:21:57.149Z,16.03
2023-05-11T05:22:59.059Z,15.07
2023-05-11T05:24:00.814Z,15.70
2023-05-11T05:25:02.336Z,15.30
2023-05-11T05:26:03.997Z,14.67
2023-05-11T05:27:05.613Z,14.40
2023-05-11T05:28:07.197Z,13.93
2023-05-11T05:29:08.734Z,15.23
2023-05-11T05:30:10.493Z,15.50
2023-05-11T05:31:12.082Z,14.80
2023-05-11T05:32:13.889Z,13.60
2023-05-11T05:33:15.440Z,14.63
2023-05-11T05:34:16.990Z,13.60
2023-05-11T05:35:18.560Z,14.53
2023-05-11T05:36:20.093Z,14.53
2023-05-11T05:37:21.632Z,14.07
2023-05-11T05:38:23.206Z,14.37
2023-05-11T05:39:24.709Z,14.60
2023-05-11T05:40:26.330Z,14.27
2023-05-11T05:41:28.013Z,14.57
2023-05-11T05:42:29.649Z,14.90
2023-05-11T05:43:31.312Z,14.17
2023-05-11T05:44:32.843Z,15.37
2023-05-11T05:45:34.412Z,15.03
2023-05-11T05:46:36.423Z,15.57
2023-05-11T05:47:38.183Z,15.10
2023-05-11T05:48:39.823Z,15.43
2023-05-11T05:49:41.428Z,15.93
2023-05-11T05:50:43.007Z,15.63
2023-05-11T05:51:44.626Z,16.13
2023-05-11T05:52:46.247Z,15.60
2023-05-11T05:53:47.763Z,15.90
2023-05-11T05:54:49.350Z,15.73
2023-05-11T05:55:50.976Z,15.80
2023-05-11T05:56:52.544Z,16.20
2023-05-11T05:57:54.195Z,17.43
2023-05-11T05:58:56.637Z,15.93
2023-05-11T05:59:58.201Z,15.27
2023-05-11T06:01:00.889Z,15.90
2023-05-11T06:02:02.620Z,15.70
2023-05-11T06:03:04.293Z,15.93
2023-05-11T06:04:06.520Z,16.10
2023-05-11T06:05:09.913Z,15.40
2023-05-11T06:06:11.997Z,15.03
2023-05-11T06:07:14.254Z,15.17
2023-05-11T06:08:16.389Z,15.40
2023-05-11T06:09:17.938Z,15.80
2023-05-11T06:10:19.647Z,15.30
2023-05-11T06:11:21.799Z,15.37
2023-05-11T06:12:23.317Z,15.37
2023-05-11T06:13:24.993Z,14.23
2023-05-11T06:14:26.498Z,14.07
2023-05-11T06:15:28.188Z,14.03
2023-05-11T06:16:30.337Z,13.97
2023-05-11T06:17:31.993Z,13.27
2023-05-11T06:18:33.571Z,13.87
2023-05-11T06:19:35.243Z,13.63
2023-05-11T06:20:36.821Z,14.63
2023-05-11T06:21:38.407Z,14.33
2023-05-11T06:22:40.057Z,14.90
2023-05-11T06:23:41.633Z,14.13
2023-05-11T06:24:43.141Z,13.90
2023-05-11T06:25:44.808Z,14.57
2023-05-11T06:26:46.453Z,14.47
2023-05-11T06:27:48.026Z,13.70
2023-05-11T06:28:49.578Z,14.20
2023-05-11T06:29:51.185Z,13.63
2023-05-11T06:30:52.969Z,13.63
2023-05-11T06:31:55.917Z,13.93
2023-05-11T06:32:57.529Z,13.87
2023-05-11T06:33:59.276Z,13.53
2023-05-11T06:35:01.383Z,13.53
2023-05-11T06:36:06.885Z,14.03
2023-05-11T06:37:08.395Z,13.77
2023-05-11T06:38:09.913Z,14.00
2023-05-11T06:39:11.569Z,14.23
2023-05-11T06:40:16.331Z,13.53
2023-05-11T06:41:18.191Z,14.93
2023-05-11T06:42:19.761Z,14.03
2023-05-11T06:43:21.655Z,13.13
2023-05-11T06:44:23.217Z,13.00
2023-05-11T06:45:24.868Z,11.63
2023-05-11T06:46:26.699Z,13.17
2023-05-11T06:47:28.333Z,13.50
2023-05-11T06:48:30.174Z,11.90
2023-05-11T06:49:31.736Z,12.30
2023-05-11T06:50:33.518Z,9.80
2023-05-11T06:51:35.075Z,8.70
2023-05-11T06:52:36.608Z,9.60
2023-05-11T06:53:38.841Z,10.70
2023-05-11T06:54:40.603Z,11.03
2023-05-11T06:55:42.188Z,10.60
2023-05-11T06:56:43.850Z,10.30
2023-05-11T06:57:47.976Z,10.10
2023-05-11T06:58:49.906Z,10.07
2023-05-11T06:59:54.486Z,9.90
2023-05-11T07:00:56.601Z,9.57
2023-05-11T07:01:58.422Z,9.53
2023-05-11T07:02:59.997Z,9.60
2023-05-11T07:04:01.674Z,8.43
2023-05-11T07:05:03.620Z,8.90
2023-05-11T07:06:05.302Z,9.50
2023-05-11T07:07:07.311Z,11.37
2023-05-11T07:08:08.889Z,12.60
2023-05-11T07:09:10.415Z,13.00
2023-05-11T07:10:11.983Z,12.17
2023-05-11T07:11:15.400Z,12.37
2023-05-11T07:12:16.974Z,11.47
2023-05-11T07:13:18.531Z,12.50
2023-05-11T07:14:20.098Z,12.30
2023-05-11T07:15:21.746Z,12.47
2023-05-11T07:16:23.487Z,12.00
2023-05-11T07:17:25.077Z,9.50
2023-05-11T07:18:26.692Z,11.00
2023-05-11T07:19:28.231Z,10.33
2023-05-11T07:20:29.835Z,11.93
2023-05-11T07:21:32.840Z,11.00
2023-05-11T07:22:34.397Z,10.83
2023-05-11T07:23:36.020Z,10.57
2023-05-11T07:24:37.982Z,10.13
2023-05-11T07:25:39.573Z,10.00
2023-05-11T07:26:41.191Z,10.20
2023-05-11T07:27:42.905Z,9.17
2023-05-11T07:28:44.470Z,8.83
2023-05-11T07:29:46.144Z,9.10
2023-05-11T07:30:47.787Z,8.90
2023-05-11T07:31:49.440Z,8.53
2023-05-11T07:32:51.091Z,9.43
2023-05-11T07:33:53.353Z,9.27
2023-05-11T07:34:54.941Z,10.00
2023-05-11T07:35:56.546Z,9.67
2023-05-11T07:36:58.159Z,9.90
2023-05-11T07:37:59.726Z,9.60
2023-05-11T07:39:01.427Z,8.87
2023-05-11T07:40:03.136Z,9.83
2023-05-11T07:41:06.662Z,9.23
2023-05-11T07:42:08.718Z,9.17
2023-05-11T07:43:10.224Z,9.43
2023-05-11T07:44:11.828Z,8.67
2023-05-11T07:45:13.369Z,9.43
2023-05-11T07:46:14.991Z,9.20
2023-05-11T07:47:18.920Z,9.13
2023-05-11T07:48:20.890Z,9.00
2023-05-11T07:49:31.109Z,8.13
2023-05-11T07:50:42.529Z,8.57
2023-05-11T07:51:44.619Z,8.50
2023-05-11T07:52:46.175Z,5.47
2023-05-11T07:53:47.874Z,5.53
2023-05-11T07:54:49.427Z,4.83
2023-05-11T07:55:51.321Z,4.70
2023-05-11T07:56:53.673Z,4.80
2023-05-11T07:57:55.661Z,6.13
2023-05-11T07:58:57.224Z,5.70
2023-05-11T07:59:58.811Z,4.87
2023-05-11T08:01:00.320Z,5.40
2023-05-11T08:02:01.995Z,5.53
2023-05-11T08:03:03.642Z,5.23
2023-05-11T08:04:05.259Z,5.00
2023-05-11T08:05:07.450Z,4.70
2023-05-11T08:06:09.129Z,5.00
2023-05-11T08:07:10.769Z,5.30
2023-05-11T08:08:12.289Z,5.20
2023-05-11T08:09:14.958Z,4.80
2023-05-11T08:10:16.546Z,4.73
2023-05-11T08:11:18.158Z,5.00
2023-05-11T08:12:19.756Z,4.30
2023-05-11T08:13:21.512Z,4.77
2023-05-11T08:14:24.456Z,5.10
2023-05-11T08:15:26.139Z,4.63
2023-05-11T08:16:27.743Z,5.10
2023-05-11T08:17:30.187Z,4.83
2023-05-11T08:18:32.077Z,4.47
2023-05-11T08:19:33.669Z,5.03
2023-05-11T08:20:35.412Z,4.90
2023-05-11T08:21:37.046Z,4.83
2023-05-11T08:22:38.637Z,5.20
2023-05-11T08:23:40.156Z,4.87
2023-05-11T08:24:41.966Z,4.97
2023-05-11T08:25:51.485Z,5.40
2023-05-11T08:26:53.039Z,4.77
2023-05-11T08:27:54.572Z,4.50
2023-05-11T08:28:56.170Z,3.90
2023-05-11T08:29:58.225Z,4.57
2023-05-11T08:31:01.068Z,4.93
2023-05-11T08:32:02.619Z,4.53
2023-05-11T08:33:13.633Z,4.43
2023-05-11T08:34:25.124Z,4.63
2023-05-11T08:35:27.360Z,4.87
2023-05-11T08:36:28.979Z,4.63
2023-05-11T08:37:31.045Z,4.57
2023-05-11T08:38:33.376Z,4.43
2023-05-11T08:39:46.774Z,4.70
2023-05-11T08:40:51.279Z,5.33
2023-05-11T08:41:55.050Z,4.67
2023-05-11T08:42:57.857Z,4.43
2023-05-11T08:44:00.686Z,4.47
2023-05-11T08:45:04.337Z,4.20
2023-05-11T08:46:07.864Z,4.77
2023-05-11T08:47:22.552Z,5.10
2023-05-11T08:48:27.783Z,4.40
2023-05-11T08:49:29.455Z,4.23
2023-05-11T08:50:31.251Z,4.47
2023-05-11T08:51:33.293Z,5.17
2023-05-11T08:52:34.904Z,4.13
2023-05-11T08:53:36.471Z,4.03
2023-05-11T08:54:38.324Z,4.80
2023-05-11T08:55:41.823Z,4.27
2023-05-11T08:56:43.786Z,8.83
2023-05-11T08:57:46.975Z,4.00
2023-05-11T08:58:50.718Z,3.90
2023-05-11T08:59:53.978Z,4.50
2023-05-11T09:00:56.695Z,4.87
2023-05-11T09:01:59.464Z,3.90
2023-05-11T09:03:02.622Z,4.70
2023-05-11T09:04:05.464Z,4.67
2023-05-11T09:05:08.794Z,4.40
2023-05-11T09:06:11.110Z,4.00
2023-05-11T09:07:16.458Z,4.27
2023-05-11T09:08:19.458Z,4.07
2023-05-11T09:09:21.055Z,3.90
2023-05-11T09:10:22.696Z,4.37
2023-05-11T09:11:24.961Z,4.30
2023-05-11T09:12:28.442Z,4.53
2023-05-11T09:13:31.029Z,4.10
2023-05-11T09:14:33.152Z,4.33
2023-05-11T09:15:38.095Z,4.80
2023-05-11T09:16:39.985Z,4.10
2023-05-11T09:17:41.640Z,4.93
2023-05-11T09:18:50.972Z,4.17
2023-05-11T09:20:07.719Z,4.20
2023-05-11T09:21:09.258Z,4.37
2023-05-11T09:22:11.090Z,4.40
2023-05-11T09:23:16.956Z,4.33
2023-05-11T09:24:20.484Z,4.20
2023-05-11T09:25:23.545Z,4.30
2023-05-11T09:26:29.939Z,4.20
2023-05-11T09:27:32.455Z,4.60
2023-05-11T09:28:36.057Z,4.53
2023-05-11T09:29:37.963Z,3.93
2023-05-11T09:30:39.503Z,3.87
2023-05-11T09:31:42.338Z,4.47
2023-05-11T09:32:48.819Z,3.90
2023-05-11T09:33:50.397Z,4.90
2023-05-11T09:34:51.956Z,4.30
2023-05-11T09:35:53.708Z,4.40
2023-05-11T09:36:57.059Z,4.23
2023-05-11T09:38:12.684Z,4.00
2023-05-11T09:39:16.476Z,4.37
2023-05-11T09:40:27.283Z,4.00
2023-05-11T09:41:34.895Z,4.50
2023-05-11T09:42:37.023Z,4.50
2023-05-11T09:43:38.667Z,4.10
2023-05-11T09:44:41.788Z,4.30
2023-05-11T09:45:45.429Z,4.73
2023-05-11T09:46:47.621Z,3.77
2023-05-11T09:47:49.335Z,4.10
2023-05-11T09:49:02.580Z,4.10
2023-05-11T09:50:17.291Z,4.30
2023-05-11T09:51:30.530Z,4.40
2023-05-11T09:52:32.112Z,3.93
2023-05-11T09:53:45.571Z,3.90
2023-05-11T09:54:49.949Z,3.50
2023-05-11T09:55:52.955Z,4.40
2023-05-11T09:56:56.980Z,4.50
2023-05-11T09:58:00.053Z,3.93
2023-05-11T09:59:01.791Z,3.90
2023-05-11T10:00:05.888Z,3.70
2023-05-11T10:01:12.993Z,3.67
2023-05-11T10:02:44.153Z,3.80
2023-05-11T10:03:52.086Z,3.97
2023-05-11T10:04:56.011Z,4.77
2023-05-11T10:06:00.663Z,3.80
2023-05-11T10:07:04.820Z,3.70
2023-05-11T10:08:06.598Z,4.10
2023-05-11T10:09:11.959Z,4.00
2023-05-11T10:10:13.891Z,3.73
2023-05-11T10:11:15.774Z,4.27
2023-05-11T10:12:18.726Z,3.90
2023-05-11T10:13:21.156Z,3.90
2023-05-11T10:14:24.771Z,4.00
2023-05-11T10:15:28.435Z,4.27
2023-05-11T10:16:31.338Z,4.00
2023-05-11T10:17:33.722Z,3.60
2023-05-11T10:18:36.866Z,3.33
2023-05-11T10:19:38.612Z,3.60
2023-05-11T10:20:40.726Z,3.30
2023-05-11T10:21:42.711Z,3.50
2023-05-11T10:22:45.972Z,3.23
2023-05-11T10:23:47.598Z,3.50
2023-05-11T10:24:50.894Z,3.80
2023-05-11T10:25:57.229Z,3.13
2023-05-11T10:26:59.977Z,3.20
2023-05-11T10:28:02.127Z,3.17
2023-05-11T10:29:04.718Z,3.17
2023-05-11T10:30:07.752Z,3.10
2023-05-11T10:31:09.866Z,3.47
2023-05-11T10:32:11.985Z,3.53
2023-05-11T10:33:14.002Z,3.47
2023-05-11T10:34:16.517Z,3.47
2023-05-11T10:35:18.874Z,3.20
2023-05-11T10:36:23.700Z,3.10
2023-05-11T10:37:26.569Z,3.77
2023-05-11T10:38:28.139Z,3.40
2023-05-11T10:39:30.876Z,3.97
2023-05-11T10:40:38.662Z,3.80
2023-05-11T10:42:11.366Z,3.50
2023-05-11T10:43:38.777Z,3.87
2023-05-11T10:44:55.304Z,3.50
2023-05-11T10:46:22.445Z,3.47
2023-05-11T10:47:27.418Z,3.83
2023-05-11T10:48:28.958Z,3.40
2023-05-11T10:50:03.011Z,3.67
2023-05-11T10:51:07.443Z,3.60
2023-05-11T10:52:30.286Z,3.80
2023-05-11T10:54:02.520Z,3.37
2023-05-11T10:55:39.466Z,2.93
2023-05-11T10:56:56.477Z,3.42
2023-05-11T10:58:07.792Z,3.55
2023-05-11T10:59:42.592Z,3.40
2023-05-11T11:01:08.678Z,3.23
2023-05-11T11:02:10.858Z,3.03
2023-05-11T11:03:14.067Z,3.20
2023-05-11T11:04:16.126Z,3.53
2023-05-11T11:05:33.683Z,2.90
2023-05-11T11:06:37.669Z,3.30
2023-05-11T11:08:04.074Z,3.03
2023-05-11T11:09:15.633Z,2.70
2023-05-11T11:10:31.678Z,2.70
2023-05-11T11:11:39.313Z,2.40
2023-05-11T11:12:59.955Z,2.72
2023-05-11T11:14:04.625Z,2.97
2023-05-11T11:15:07.267Z,2.53
2023-05-11T11:16:09.577Z,3.00
2023-05-11T11:17:17.274Z,3.33
2023-05-11T11:18:20.855Z,2.20
2023-05-11T11:19:35.851Z,2.63
2023-05-11T11:20:52.362Z,2.80
2023-05-11T11:21:53.931Z,2.50
2023-05-11T11:22:55.505Z,2.63
2023-05-11T11:23:57.142Z,2.60
2023-05-11T11:24:58.726Z,2.43
2023-05-11T11:26:00.956Z,2.53
2023-05-11T11:27:03.239Z,2.90
2023-05-11T11:28:05.447Z,3.00
2023-05-11T11:29:11.684Z,2.90
2023-05-11T11:30:34.890Z,3.08
2023-05-11T11:31:37.454Z,3.05
2023-05-11T11:32:39.129Z,3.10
2023-05-11T11:33:40.740Z,2.72
2023-05-11T11:34:42.367Z,2.75
2023-05-11T11:35:44.873Z,2.90
2023-05-11T11:36:55.785Z,2.67
2023-05-11T11:38:06.071Z,3.00
2023-05-11T11:39:08.120Z,2.70
2023-05-11T11:40:15.348Z,2.67
2023-05-11T11:41:29.462Z,2.70
2023-05-11T11:42:31.133Z,2.67
2023-05-11T11:43:47.311Z,2.33
2023-05-11T11:44:49.059Z,2.53
2023-05-11T11:45:51.507Z,2.28
2023-05-11T11:47:16.507Z,2.53
2023-05-11T11:48:23.518Z,2.60
2023-05-11T11:49:27.279Z,1.88
2023-05-11T11:50:28.963Z,2.30
2023-05-11T11:51:34.512Z,2.40
2023-05-11T11:52:36.230Z,2.75
2023-05-11T11:53:38.238Z,2.38
2023-05-11T11:54:41.723Z,2.30
2023-05-11T11:55:52.371Z,2.45
2023-05-11T11:56:53.906Z,2.60
2023-05-11T11:57:55.465Z,2.43
2023-05-11T11:59:01.373Z,1.75
2023-05-11T12:00:05.700Z,1.73
2023-05-11T12:01:22.828Z,2.17
2023-05-11T12:02:26.409Z,2.22
2023-05-11T12:03:28.384Z,2.07
2023-05-11T12:04:45.062Z,2.40
2023-05-11T12:05:48.126Z,2.40
2023-05-11T12:06:57.808Z,2.27
2023-05-11T12:08:05.556Z,2.30
2023-05-11T12:09:08.111Z,2.20
2023-05-11T12:10:12.484Z,2.08
2023-05-11T12:11:17.638Z,2.27
2023-05-11T12:12:20.972Z,2.20
2023-05-11T12:13:22.790Z,2.30
2023-05-11T12:14:25.259Z,2.38
2023-05-11T12:15:34.524Z,2.30
2023-05-11T12:16:36.071Z,2.40
2023-05-11T12:17:39.126Z,2.40
2023-05-11T12:18:42.040Z,2.55
2023-05-11T12:19:44.440Z,2.28
2023-05-11T12:20:46.310Z,2.10
2023-05-11T12:21:47.839Z,2.20
2023-05-11T12:22:49.829Z,2.60
2023-05-11T12:23:55.998Z,2.10
2023-05-11T12:25:00.307Z,2.17
2023-05-11T12:26:06.665Z,2.28
2023-05-11T12:27:08.521Z,2.10
2023-05-11T12:28:12.528Z,1.98
2023-05-11T12:29:15.364Z,2.07
2023-05-11T12:30:27.389Z,2.10
2023-05-11T12:31:35.449Z,2.00
2023-05-11T12:32:37.024Z,2.17
2023-05-11T12:33:49.217Z,2.20
2023-05-11T12:35:04.315Z,2.33
2023-05-11T12:36:06.428Z,2.50
2023-05-11T12:37:08.711Z,2.30
2023-05-11T12:38:11.056Z,1.97
2023-05-11T12:39:26.811Z,1.90
2023-05-11T12:40:28.504Z,1.97
2023-05-11T12:41:30.044Z,2.07
2023-05-11T12:42:33.287Z,1.83
2023-05-11T12:43:36.988Z,2.47
2023-05-11T12:44:40.756Z,2.08
2023-05-11T12:45:42.486Z,2.05
2023-05-11T12:46:48.696Z,2.30
2023-05-11T12:47:52.958Z,2.05
2023-05-11T12:48:54.690Z,2.17
2023-05-11T12:49:56.302Z,2.60
2023-05-11T12:50:57.982Z,2.03
2023-05-11T12:51:59.483Z,2.23
2023-05-11T12:53:16.395Z,2.17
2023-05-11T12:54:35.353Z,2.20
2023-05-11T12:55:37.020Z,2.10
2023-05-11T12:56:50.713Z,1.80
2023-05-11T12:57:54.622Z,2.35
2023-05-11T12:58:56.167Z,1.92
2023-05-11T13:00:08.054Z,2.20
2023-05-11T13:01:09.724Z,2.00
2023-05-11T13:02:15.991Z,1.90
2023-05-11T13:03:25.756Z,1.70
2023-05-11T13:04:31.014Z,1.95
2023-05-11T13:05:32.749Z,2.13
2023-05-11T13:06:34.328Z,2.03
2023-05-11T13:07:35.885Z,2.10
2023-05-11T13:08:39.014Z,1.80
2023-05-11T13:09:41.205Z,1.70
2023-05-11T13:10:42.766Z,2.00
2023-05-11T13:11:44.329Z,1.98
2023-05-11T13:12:50.476Z,1.98
2023-05-11T13:13:53.705Z,2.15
2023-05-11T13:15:12.840Z,1.90
2023-05-11T13:16:28.595Z,1.80
2023-05-11T13:17:35.674Z,2.30
2023-05-11T13:18:37.406Z,1.80
2023-05-11T13:19:39.590Z,1.67
2023-05-11T13:20:41.671Z,1.90
2023-05-11T13:21:46.511Z,1.80
2023-05-11T13:22:49.465Z,1.90
2023-05-11T13:23:51.702Z,1.90
2023-05-11T13:25:02.546Z,2.00
2023-05-11T13:26:04.338Z,1.52
2023-05-11T13:27:05.902Z,1.90
2023-05-11T13:28:07.550Z,1.52
2023-05-11T13:29:11.420Z,1.90
2023-05-11T13:30:13.566Z,1.60
2023-05-11T13:31:15.374Z,2.10
2023-05-11T13:32:17.109Z,1.75
2023-05-11T13:33:19.467Z,2.10
2023-05-11T13:34:21.200Z,1.63
2023-05-11T13:35:22.774Z,1.70
2023-05-11T13:36:24.320Z,1.58
2023-05-11T13:37:25.959Z,1.70
2023-05-11T13:38:27.488Z,1.67
2023-05-11T13:39:29.022Z,2.10
2023-05-11T13:40:30.657Z,1.67
2023-05-11T13:41:32.610Z,1.70
2023-05-11T13:42:34.293Z,2.20
2023-05-11T13:43:36.583Z,1.80
2023-05-11T13:44:38.203Z,1.60
2023-05-11T13:45:41.300Z,4.18
2023-05-11T13:46:43.187Z,5.65
2023-05-11T13:47:45.848Z,6.63
2023-05-11T13:48:47.816Z,7.00
2023-05-11T13:49:49.406Z,7.72
2023-05-11T13:50:50.963Z,7.70
2023-05-11T13:51:52.691Z,7.65
2023-05-11T13:52:54.286Z,8.07
2023-05-11T13:53:55.984Z,8.90
2023-05-11T13:54:57.539Z,8.50
2023-05-11T13:55:59.362Z,8.95
2023-05-11T13:57:01.945Z,8.15
2023-05-11T13:58:03.497Z,8.20
2023-05-11T13:59:05.062Z,8.60
2023-05-11T14:00:07.314Z,8.40